createdAt,value
2023-05-19T00:01:22.703Z,11.87
2023-05-19T00:03:53.720Z,11.94
2023-05-19T00:06:25.079Z,11.88
2023-05-19T00:09:01.794Z,11.92
2023-05-19T00:11:29.204Z,11.86
2023-05-19T00:13:57.164Z,12.09
2023-05-19T00:16:24.602Z,12.28
2023-05-19T00:18:51.819Z,12.01
2023-05-19T00:21:19.053Z,12.21
2023-05-19T00:23:45.685Z,11.78
2023-05-19T00:26:12.382Z,11.90
2023-05-19T00:28:46.079Z,11.91
2023-05-19T00:31:12.938Z,11.89
2023-05-19T00:33:39.548Z,11.81
2023-05-19T00:36:06.424Z,11.85
2023-05-19T00:38:36.581Z,11.78
2023-05-19T00:41:03.984Z,11.71
2023-05-19T00:43:30.692Z,11.74
2023-05-19T00:45:57.947Z,11.97
2023-05-19T00:48:27.778Z,11.65
2023-05-19T00:50:56.356Z,12.21
2023-05-19T00:53:23.320Z,12.13
2023-05-19T00:55:50.548Z,12.21
2023-05-19T00:58:17.189Z,12.04
2023-05-19T01:00:44.422Z,11.94
2023-05-19T01:03:11.786Z,11.91
2023-05-19T01:05:44.834Z,12.16
2023-05-19T01:08:11.911Z,11.84
2023-05-19T01:10:38.500Z,11.88
2023-05-19T01:13:05.890Z,12.00
2023-05-19T01:15:38.639Z,11.62
2023-05-19T01:18:08.340Z,11.60
2023-05-19T01:20:41.382Z,11.70
2023-05-19T01:23:15.318Z,11.87
2023-05-19T01:26:00.916Z,11.69
2023-05-19T01:28:33.676Z,11.48
2023-05-19T01:31:01.174Z,11.45
2023-05-19T01:33:30.182Z,11.79
2023-05-19T01:35:58.024Z,11.81
2023-05-19T01:38:28.344Z,11.51
2023-05-19T01:40:56.289Z,11.54
2023-05-19T01:43:26.772Z,11.98
2023-05-19T01:45:53.594Z,11.72
2023-05-19T01:48:24.836Z,11.68
2023-05-19T01:50:51.658Z,11.52
2023-05-19T01:53:18.258Z,11.39
2023-05-19T01:55:50.090Z,11.74
2023-05-19T01:58:37.866Z,11.47
2023-05-19T02:01:10.791Z,11.38
2023-05-19T02:03:40.953Z,11.62
2023-05-19T02:06:26.808Z,11.56
2023-05-19T02:09:06.913Z,11.40
2023-05-19T02:11:35.965Z,11.29
2023-05-19T02:14:03.471Z,11.59
2023-05-19T02:16:30.485Z,11.22
2023-05-19T02:18:59.298Z,11.28
2023-05-19T02:21:26.774Z,11.17
2023-05-19T02:23:54.857Z,11.61
2023-05-19T02:26:21.752Z,11.72
2023-05-19T02:28:48.304Z,11.55
2023-05-19T02:31:15.107Z,11.39
2023-05-19T02:33:43.053Z,11.58
2023-05-19T02:36:10.161Z,11.32
2023-05-19T02:38:39.751Z,11.39
2023-05-19T02:41:08.681Z,11.58
2023-05-19T02:43:35.513Z,11.52
2023-05-19T02:46:02.269Z,11.01
2023-05-19T02:48:31.866Z,10.78
2023-05-19T02:50:58.519Z,11.20
2023-05-19T02:53:25.191Z,10.97
2023-05-19T02:55:54.112Z,11.24
2023-05-19T02:58:20.887Z,11.54
2023-05-19T03:00:48.019Z,11.42
2023-05-19T03:03:15.136Z,11.56
2023-05-19T03:05:42.877Z,11.53
2023-05-19T03:08:09.514Z,11.44
2023-05-19T03:10:36.393Z,11.40
2023-05-19T03:13:03.060Z,11.55
2023-05-19T03:15:30.712Z,11.53
2023-05-19T03:17:57.452Z,11.83
2023-05-19T03:20:24.653Z,12.10
2023-05-19T03:22:54.448Z,11.72
2023-05-19T03:25:21.265Z,11.62
2023-05-19T03:27:47.844Z,11.64
2023-05-19T03:30:14.743Z,11.54
2023-05-19T03:32:55.928Z,11.17
2023-05-19T03:35:24.990Z,11.27
2023-05-19T03:37:51.594Z,11.05
2023-05-19T03:40:19.011Z,11.30
2023-05-19T03:42:46.182Z,11.20
2023-05-19T03:45:13.711Z,11.47
2023-05-19T03:47:41.316Z,11.42
2023-05-19T03:50:29.196Z,11.39
2023-05-19T03:53:01.842Z,11.55
2023-05-19T03:55:32.053Z,11.33
2023-05-19T03:57:58.695Z,11.34
2023-05-19T04:00:25.405Z,11.48
2023-05-19T04:02:54.495Z,11.53
2023-05-19T04:05:21.224Z,11.45
2023-05-19T04:07:47.952Z,11.65
2023-05-19T04:10:14.587Z,11.41
2023-05-19T04:12:41.347Z,11.52
2023-05-19T04:15:11.560Z,11.46
2023-05-19T04:17:38.456Z,11.32
2023-05-19T04:20:08.069Z,11.31
2023-05-19T04:22:36.905Z,11.46
2023-05-19T04:25:05.242Z,11.51
2023-05-19T04:27:32.167Z,11.41
2023-05-19T04:30:01.293Z,11.38
2023-05-19T04:32:29.392Z,11.51
2023-05-19T04:34:58.938Z,11.64
2023-05-19T04:37:30.054Z,11.09
2023-05-19T04:39:57.477Z,10.92
2023-05-19T04:42:26.259Z,10.78
2023-05-19T04:44:54.256Z,10.89
2023-05-19T04:47:28.220Z,11.03
2023-05-19T04:49:55.811Z,11.01
2023-05-19T04:52:22.790Z,11.10
2023-05-19T04:54:50.709Z,11.46
2023-05-19T04:57:17.445Z,11.12
2023-05-19T04:59:46.206Z,11.61
2023-05-19T05:02:12.931Z,11.53
2023-05-19T05:04:42.718Z,11.81
2023-05-19T05:07:09.985Z,12.02
2023-05-19T05:09:37.632Z,12.00
2023-05-19T05:12:04.704Z,12.01
2023-05-19T05:14:31.454Z,12.09
2023-05-19T05:16:58.334Z,12.10
2023-05-19T05:19:26.044Z,12.11
2023-05-19T05:21:54.057Z,12.26
2023-05-19T05:24:21.092Z,12.57
2023-05-19T05:26:54.117Z,12.49
2023-05-19T05:29:21.280Z,12.58
2023-05-19T05:31:47.977Z,12.65
2023-05-19T05:34:16.935Z,12.67
2023-05-19T05:36:43.752Z,13.06
2023-05-19T05:39:10.519Z,13.14
2023-05-19T05:41:39.836Z,13.33
2023-05-19T05:44:10.771Z,13.40
2023-05-19T05:46:39.534Z,13.36
2023-05-19T05:49:09.030Z,13.50
2023-05-19T05:51:35.895Z,13.27
2023-05-19T05:54:03.077Z,13.78
2023-05-19T05:56:37.060Z,13.51
2023-05-19T05:59:07.826Z,13.70
2023-05-19T06:01:35.837Z,13.96
2023-05-19T06:04:04.763Z,14.07
2023-05-19T06:06:32.835Z,13.98
2023-05-19T06:09:01.428Z,14.22
2023-05-19T06:11:28.859Z,13.93
2023-05-19T06:13:58.385Z,13.88
2023-05-19T06:16:43.716Z,14.15
2023-05-19T06:19:11.057Z,13.99
2023-05-19T06:21:37.775Z,14.12
2023-05-19T06:24:04.597Z,14.15
2023-05-19T06:26:31.258Z,14.07
2023-05-19T06:28:57.984Z,14.59
2023-05-19T06:31:26.555Z,14.40
2023-05-19T06:33:56.129Z,14.46
2023-05-19T06:36:22.822Z,14.44
2023-05-19T06:38:49.693Z,14.60
2023-05-19T06:41:16.388Z,14.50
2023-05-19T06:43:43.168Z,14.55
2023-05-19T06:46:13.814Z,14.65
2023-05-19T06:48:40.686Z,14.60
2023-05-19T06:51:10.223Z,14.86
2023-05-19T06:53:39.801Z,14.77
2023-05-19T06:56:08.870Z,15.00
2023-05-19T06:58:39.493Z,14.98
2023-05-19T07:01:06.225Z,14.92
2023-05-19T07:03:39.262Z,14.93
2023-05-19T07:06:08.076Z,14.96
2023-05-19T07:08:37.363Z,15.10
2023-05-19T07:11:06.203Z,15.10
2023-05-19T07:13:33.093Z,15.20
2023-05-19T07:15:59.751Z,15.39
2023-05-19T07:18:31.938Z,15.03
2023-05-19T07:20:59.067Z,15.40
2023-05-19T07:23:28.127Z,15.57
2023-05-19T07:25:58.914Z,15.71
2023-05-19T07:28:25.703Z,15.88
2023-05-19T07:30:53.214Z,15.85
2023-05-19T07:33:19.876Z,15.69
2023-05-19T07:35:46.612Z,15.72
2023-05-19T07:38:13.909Z,15.88
2023-05-19T07:40:40.532Z,15.70
2023-05-19T07:43:07.178Z,15.89
2023-05-19T07:45:33.829Z,16.12
2023-05-19T07:48:00.689Z,16.31
2023-05-19T07:50:27.438Z,16.18
2023-05-19T07:52:54.119Z,16.18
2023-05-19T07:55:23.194Z,16.38
2023-05-19T07:57:50.881Z,16.53
2023-05-19T08:00:17.854Z,16.61
2023-05-19T08:02:44.904Z,16.45
2023-05-19T08:05:12.152Z,16.72
2023-05-19T08:07:38.939Z,16.92
2023-05-19T08:10:06.785Z,16.70
2023-05-19T08:12:33.445Z,16.92
2023-05-19T08:15:01.391Z,16.95
2023-05-19T08:17:30.792Z,17.16
2023-05-19T08:19:57.689Z,17.19
2023-05-19T08:22:24.428Z,17.22
2023-05-19T08:24:52.266Z,17.25
2023-05-19T08:27:18.930Z,17.07
2023-05-19T08:29:45.523Z,17.09
2023-05-19T08:32:13.398Z,17.45
2023-05-19T08:34:40.271Z,17.61
2023-05-19T08:37:07.611Z,17.32
2023-05-19T08:39:34.833Z,17.59
2023-05-19T08:42:02.460Z,17.67
2023-05-19T08:44:30.912Z,17.94
2023-05-19T08:47:00.764Z,17.96
2023-05-19T08:49:31.102Z,18.36
2023-05-19T08:52:17.224Z,18.29
2023-05-19T08:54:50.972Z,18.21
2023-05-19T08:57:18.007Z,18.06
2023-05-19T08:59:44.904Z,18.34
2023-05-19T09:02:13.237Z,18.30
2023-05-19T09:04:40.289Z,18.26
2023-05-19T09:07:07.039Z,18.52
2023-05-19T09:09:33.620Z,18.61
2023-05-19T09:12:00.285Z,18.52
2023-05-19T09:14:26.933Z,18.75
2023-05-19T09:16:54.082Z,18.84
2023-05-19T09:19:21.337Z,18.68
2023-05-19T09:21:57.991Z,18.90
2023-05-19T09:24:25.984Z,18.98
2023-05-19T09:26:55.228Z,18.97
2023-05-19T09:29:22.691Z,19.08
2023-05-19T09:31:53.880Z,19.15
2023-05-19T09:34:22.303Z,19.18
2023-05-19T09:36:54.945Z,19.25
2023-05-19T09:39:25.242Z,19.21
2023-05-19T09:41:55.359Z,19.27
2023-05-19T09:44:31.219Z,18.65
2023-05-19T09:46:58.760Z,18.93
2023-05-19T09:49:29.508Z,19.06
2023-05-19T09:51:56.844Z,19.15
2023-05-19T09:54:24.222Z,19.46
2023-05-19T09:56:57.582Z,19.68
2023-05-19T09:59:25.709Z,19.59
2023-05-19T10:01:56.867Z,18.98
2023-05-19T10:04:29.745Z,19.26
2023-05-19T10:06:59.860Z,19.33
2023-05-19T10:09:27.936Z,19.35
2023-05-19T10:11:55.836Z,19.62
2023-05-19T10:14:23.596Z,19.98
2023-05-19T10:16:54.210Z,20.16
2023-05-19T10:19:24.949Z,20.50
2023-05-19T10:21:52.445Z,20.27
2023-05-19T10:24:21.226Z,20.41
2023-05-19T10:27:01.513Z,20.06
2023-05-19T10:29:39.917Z,20.09
2023-05-19T10:32:18.803Z,20.20
2023-05-19T10:34:57.900Z,20.55
2023-05-19T10:37:57.044Z,20.42
2023-05-19T10:40:33.231Z,20.29
2023-05-19T10:43:02.805Z,19.99
2023-05-19T10:45:36.382Z,20.05
2023-05-19T10:48:03.249Z,20.35
2023-05-19T10:50:36.141Z,20.80
2023-05-19T10:53:02.785Z,21.18
2023-05-19T10:56:04.526Z,21.68
2023-05-19T10:58:37.229Z,21.97
2023-05-19T11:01:07.015Z,21.99
2023-05-19T11:03:43.325Z,21.79
2023-05-19T11:06:19.212Z,21.60
2023-05-19T11:08:47.861Z,21.41
2023-05-19T11:11:15.120Z,21.23
2023-05-19T11:13:43.585Z,20.91
2023-05-19T11:16:10.494Z,21.01
2023-05-19T11:18:38.408Z,21.65
2023-05-19T11:21:08.654Z,22.89
2023-05-19T11:23:38.228Z,24.26
2023-05-19T11:26:06.653Z,25.75
2023-05-19T11:28:33.516Z,26.12
2023-05-19T11:31:02.537Z,24.98
2023-05-19T11:33:30.072Z,25.17
2023-05-19T11:36:00.802Z,25.52
2023-05-19T11:38:28.564Z,25.84
2023-05-19T11:40:55.918Z,25.11
2023-05-19T11:43:23.764Z,25.87
2023-05-19T11:45:51.010Z,26.42
2023-05-19T11:48:20.635Z,26.08
2023-05-19T11:50:47.656Z,25.76
2023-05-19T11:53:15.298Z,25.35
2023-05-19T11:55:48.116Z,25.77
2023-05-19T11:58:15.228Z,26.80
2023-05-19T12:00:43.219Z,27.40
2023-05-19T12:03:10.188Z,27.50
2023-05-19T12:05:41.930Z,28.16
2023-05-19T12:08:10.355Z,28.58
2023-05-19T12:10:37.180Z,26.48
2023-05-19T12:13:06.292Z,25.69
2023-05-19T12:15:33.649Z,24.99
2023-05-19T12:18:03.591Z,23.98
2023-05-19T12:20:35.809Z,23.92
2023-05-19T12:23:03.143Z,24.51
2023-05-19T12:25:30.337Z,25.28
2023-05-19T12:28:00.997Z,26.16
2023-05-19T12:30:29.079Z,27.08
2023-05-19T12:32:57.815Z,27.15
2023-05-19T12:35:28.288Z,25.77
2023-05-19T12:37:55.123Z,24.79
2023-05-19T12:40:22.107Z,23.70
2023-05-19T12:42:49.869Z,23.40
2023-05-19T12:45:20.655Z,24.91
2023-05-19T12:47:48.369Z,25.99
2023-05-19T12:50:15.036Z,26.60
2023-05-19T12:52:42.838Z,25.13
2023-05-19T12:55:11.207Z,23.95
2023-05-19T12:57:38.737Z,24.66
2023-05-19T13:00:32.546Z,25.73
2023-05-19T13:03:00.919Z,24.11
2023-05-19T13:05:28.417Z,23.19
2023-05-19T13:07:59.073Z,22.58
2023-05-19T13:10:29.012Z,22.70
2023-05-19T13:12:56.218Z,21.97
2023-05-19T13:15:24.232Z,21.82
2023-05-19T13:17:51.054Z,21.64
2023-05-19T13:20:17.794Z,21.75
2023-05-19T13:22:44.582Z,21.64
2023-05-19T13:25:11.413Z,21.52
2023-05-19T13:27:38.063Z,21.70
2023-05-19T13:30:05.391Z,21.91
2023-05-19T13:32:33.632Z,22.29
2023-05-19T13:35:01.234Z,23.02
2023-05-19T13:37:28.444Z,23.69
2023-05-19T13:39:55.482Z,24.16
2023-05-19T13:42:22.267Z,24.59
2023-05-19T13:44:48.945Z,25.08
2023-05-19T13:47:15.887Z,24.72
2023-05-19T13:49:42.678Z,23.81
2023-05-19T13:52:09.396Z,23.33
2023-05-19T13:54:36.088Z,22.96
2023-05-19T13:57:02.714Z,22.64
2023-05-19T13:59:29.815Z,22.46
2023-05-19T14:01:56.556Z,22.27
2023-05-19T14:04:24.456Z,22.18
2023-05-19T14:06:51.228Z,22.19
2023-05-19T14:09:17.867Z,21.56
2023-05-19T14:11:44.562Z,21.66
2023-05-19T14:14:11.645Z,21.69
2023-05-19T14:16:38.828Z,21.93
2023-05-19T14:19:05.768Z,22.02
2023-05-19T14:21:32.797Z,21.77
2023-05-19T14:23:59.653Z,21.38
2023-05-19T14:26:28.079Z,22.07
2023-05-19T14:28:57.157Z,22.39
2023-05-19T14:31:26.870Z,22.25
2023-05-19T14:33:54.024Z,21.98
2023-05-19T14:36:20.780Z,22.28
2023-05-19T14:38:47.392Z,22.25
2023-05-19T14:41:14.045Z,22.25
2023-05-19T14:43:43.774Z,22.37
2023-05-19T14:46:10.508Z,22.31
2023-05-19T14:48:37.245Z,22.06
2023-05-19T14:51:03.957Z,22.17
2023-05-19T14:53:30.747Z,22.18
2023-05-19T14:55:57.354Z,22.35
2023-05-19T14:58:28.785Z,22.51
2023-05-19T15:00:57.571Z,22.44
2023-05-19T15:03:26.679Z,22.34
2023-05-19T15:05:53.463Z,22.50
2023-05-19T15:08:20.062Z,22.56
2023-05-19T15:10:50.013Z,22.39
2023-05-19T15:13:19.267Z,22.71
2023-05-19T15:15:46.094Z,22.55
2023-05-19T15:18:13.705Z,22.29
2023-05-19T15:20:40.444Z,22.20
2023-05-19T15:23:07.105Z,22.56
2023-05-19T15:25:33.729Z,22.71
2023-05-19T15:28:00.354Z,22.45
2023-05-19T15:30:26.912Z,22.60
2023-05-19T15:32:53.712Z,22.53
2023-05-19T15:35:20.407Z,22.18
2023-05-19T15:37:47.042Z,22.54
2023-05-19T15:40:13.724Z,22.59
2023-05-19T15:42:40.475Z,22.50
2023-05-19T15:45:08.190Z,22.52
2023-05-19T15:47:34.967Z,22.38
2023-05-19T15:50:01.588Z,22.32
2023-05-19T15:52:29.242Z,22.13
2023-05-19T15:54:59.027Z,21.82
2023-05-19T15:57:26.004Z,21.57
2023-05-19T15:59:52.842Z,21.59
2023-05-19T16:02:19.677Z,21.52
2023-05-19T16:04:46.529Z,20.92
2023-05-19T16:07:13.198Z,21.15
2023-05-19T16:09:42.322Z,20.85
2023-05-19T16:12:11.332Z,20.77
2023-05-19T16:14:37.930Z,20.98
2023-05-19T16:17:05.136Z,21.02
2023-05-19T16:19:31.970Z,20.86
2023-05-19T16:21:59.143Z,20.55
2023-05-19T16:24:25.939Z,20.92
2023-05-19T16:26:53.900Z,20.55
2023-05-19T16:29:20.622Z,20.32
2023-05-19T16:31:47.290Z,20.66
2023-05-19T16:34:14.063Z,20.86
2023-05-19T16:36:40.736Z,20.77
2023-05-19T16:39:07.409Z,20.69
2023-05-19T16:41:34.027Z,20.79
2023-05-19T16:44:02.258Z,21.01
2023-05-19T16:46:30.589Z,20.62
2023-05-19T16:48:57.939Z,20.83
2023-05-19T16:51:24.694Z,20.71
2023-05-19T16:53:53.654Z,20.84
2023-05-19T16:56:21.853Z,21.03
2023-05-19T16:58:49.381Z,20.71
2023-05-19T17:01:17.450Z,20.86
2023-05-19T17:03:44.152Z,20.70
2023-05-19T17:06:10.845Z,20.25
2023-05-19T17:08:37.528Z,20.05
2023-05-19T17:11:08.594Z,20.19
2023-05-19T17:13:36.503Z,20.18
2023-05-19T17:16:03.184Z,20.30
2023-05-19T17:18:31.291Z,20.06
2023-05-19T17:20:59.385Z,20.15
2023-05-19T17:23:26.118Z,20.37
2023-05-19T17:25:55.833Z,19.51
2023-05-19T17:28:22.501Z,20.03
2023-05-19T17:30:49.076Z,19.90
2023-05-19T17:33:15.746Z,19.89
2023-05-19T17:35:43.454Z,19.81
2023-05-19T17:38:10.083Z,19.64
2023-05-19T17:40:37.070Z,19.81
2023-05-19T17:43:03.873Z,19.88
2023-05-19T17:45:30.838Z,20.01
2023-05-19T17:47:59.901Z,20.01
2023-05-19T17:50:26.476Z,20.03
2023-05-19T17:52:53.394Z,20.09
2023-05-19T17:55:20.217Z,19.99
2023-05-19T17:57:48.024Z,20.17
2023-05-19T18:00:15.656Z,20.07
2023-05-19T18:02:42.458Z,19.95
2023-05-19T18:05:09.617Z,19.71
2023-05-19T18:07:39.481Z,19.72
2023-05-19T18:10:06.628Z,19.74
2023-05-19T18:12:33.219Z,19.53
2023-05-19T18:14:59.878Z,19.62
2023-05-19T18:17:26.598Z,19.64
2023-05-19T18:19:54.670Z,19.46
2023-05-19T18:22:21.332Z,19.40
2023-05-19T18:24:48.667Z,19.05
2023-05-19T18:27:15.362Z,19.14
2023-05-19T18:29:42.237Z,19.17
2023-05-19T18:32:09.243Z,18.90
2023-05-19T18:34:35.928Z,18.90
2023-05-19T18:37:02.593Z,18.85
2023-05-19T18:39:29.454Z,18.89
2023-05-19T18:41:58.429Z,18.84
2023-05-19T18:44:25.248Z,18.99
2023-05-19T18:46:51.935Z,18.74
2023-05-19T18:49:18.584Z,18.67
2023-05-19T18:51:48.433Z,18.42
2023-05-19T18:54:15.769Z,18.49
2023-05-19T18:56:42.448Z,18.35
2023-05-19T18:59:10.074Z,18.60
2023-05-19T19:01:36.727Z,18.57
2023-05-19T19:04:03.587Z,18.54
2023-05-19T19:06:31.275Z,18.68
2023-05-19T19:08:57.905Z,18.50
2023-05-19T19:11:24.459Z,18.52
2023-05-19T19:13:51.485Z,18.32
2023-05-19T19:16:18.340Z,18.37
2023-05-19T19:18:47.374Z,18.27
2023-05-19T19:21:14.078Z,18.04
2023-05-19T19:23:40.955Z,18.23
2023-05-19T19:26:09.273Z,17.89
2023-05-19T19:28:35.932Z,17.90
2023-05-19T19:31:02.680Z,17.75
2023-05-19T19:33:29.378Z,17.62
2023-05-19T19:35:56.141Z,18.04
2023-05-19T19:38:22.780Z,17.73
2023-05-19T19:40:51.009Z,17.27
2023-05-19T19:43:17.703Z,17.40
2023-05-19T19:45:44.265Z,17.42
2023-05-19T19:48:12.108Z,17.35
2023-05-19T19:50:38.888Z,17.55
2023-05-19T19:53:05.527Z,17.56
2023-05-19T19:55:32.385Z,17.35
2023-05-19T19:57:59.058Z,17.17
2023-05-19T20:00:25.676Z,17.03
2023-05-19T20:03:04.470Z,16.99
2023-05-19T20:05:32.474Z,17.17
2023-05-19T20:07:59.158Z,17.16
2023-05-19T20:10:25.830Z,16.71
2023-05-19T20:12:52.575Z,16.69
2023-05-19T20:15:19.182Z,16.65
2023-05-19T20:17:45.933Z,16.70
2023-05-19T20:20:12.850Z,16.96
2023-05-19T20:22:39.505Z,16.94
2023-05-19T20:25:06.442Z,16.96
2023-05-19T20:27:33.093Z,17.05
2023-05-19T20:29:59.838Z,16.86
2023-05-19T20:32:26.558Z,16.77
2023-05-19T20:34:53.367Z,16.48
2023-05-19T20:37:23.581Z,16.41
2023-05-19T20:39:51.556Z,16.56
2023-05-19T20:42:18.155Z,16.40
2023-05-19T20:44:44.915Z,16.50
2023-05-19T20:47:11.613Z,16.69
2023-05-19T20:49:38.327Z,16.48
2023-05-19T20:52:04.920Z,16.65
2023-05-19T20:54:31.508Z,16.23
2023-05-19T20:56:58.245Z,16.51
2023-05-19T20:59:24.883Z,16.65
2023-05-19T21:01:51.429Z,16.66
2023-05-19T21:04:19.396Z,16.15
2023-05-19T21:06:46.055Z,16.22
2023-05-19T21:09:12.792Z,16.50
2023-05-19T21:11:39.414Z,16.74
2023-05-19T21:14:06.614Z,16.45
2023-05-19T21:16:34.170Z,16.52
2023-05-19T21:19:01.952Z,16.47
2023-05-19T21:21:28.736Z,16.32
2023-05-19T21:23:55.376Z,16.48
2023-05-19T21:26:24.166Z,16.22
2023-05-19T21:28:51.163Z,16.07
2023-05-19T21:31:17.794Z,16.09
2023-05-19T21:33:44.730Z,16.04
2023-05-19T21:36:11.366Z,16.00
2023-05-19T21:38:38.017Z,15.95
2023-05-19T21:41:04.617Z,15.76
2023-05-19T21:43:31.265Z,15.91
2023-05-19T21:45:57.894Z,15.81
2023-05-19T21:48:24.608Z,15.76
2023-05-19T21:50:54.942Z,15.91
2023-05-19T21:53:23.758Z,15.57
2023-05-19T21:55:50.850Z,15.75
2023-05-19T21:58:18.252Z,16.02
2023-05-19T22:00:51.529Z,16.16
2023-05-19T22:03:18.440Z,16.04
2023-05-19T22:05:51.547Z,16.03
2023-05-19T22:08:18.907Z,16.02
2023-05-19T22:10:51.377Z,15.91
2023-05-19T22:13:18.978Z,15.76
2023-05-19T22:15:45.697Z,15.71
2023-05-19T22:18:12.877Z,15.45
2023-05-19T22:20:39.925Z,15.38
2023-05-19T22:23:06.708Z,15.42
2023-05-19T22:25:33.340Z,15.45
2023-05-19T22:28:01.305Z,15.24
2023-05-19T22:30:27.951Z,15.28
2023-05-19T22:32:54.642Z,15.49
2023-05-19T22:35:21.444Z,15.39
2023-05-19T22:37:48.096Z,15.45
2023-05-19T22:40:14.736Z,15.59
2023-05-19T22:42:43.451Z,15.39
2023-05-19T22:45:10.193Z,15.51
2023-05-19T22:47:36.903Z,15.31
2023-05-19T22:50:04.072Z,15.07
2023-05-19T22:52:30.743Z,15.06
2023-05-19T22:54:57.329Z,15.42
2023-05-19T22:57:23.990Z,14.90
2023-05-19T22:59:50.660Z,14.99
2023-05-19T23:02:17.466Z,15.03
2023-05-19T23:04:44.067Z,15.00
2023-05-19T23:07:10.677Z,14.94
2023-05-19T23:09:37.254Z,15.02
2023-05-19T23:12:04.027Z,14.78
2023-05-19T23:14:31.629Z,14.82
2023-05-19T23:16:58.316Z,15.00
2023-05-19T23:19:25.097Z,14.95
2023-05-19T23:21:51.812Z,14.75
2023-05-19T23:24:18.373Z,14.87
2023-05-19T23:26:45.094Z,14.55
2023-05-19T23:29:13.050Z,14.67
2023-05-19T23:31:40.990Z,14.77
2023-05-19T23:34:07.786Z,14.82
2023-05-19T23:36:34.422Z,15.01
2023-05-19T23:39:01.251Z,14.19
2023-05-19T23:41:28.232Z,14.37
2023-05-19T23:43:54.801Z,14.36
2023-05-19T23:46:21.490Z,14.67
2023-05-19T23:48:48.176Z,14.47
2023-05-19T23:51:14.842Z,14.20
2023-05-19T23:53:43.304Z,14.55
2023-05-19T23:56:10.599Z,14.11
2023-05-19T23:58:37.168Z,13.76
